Time;durP1;ratioP1;P1;durP2;ratioP2;P2;SDS_P1;SDS_P2;PMS_P1;PMS_P2;Temp;Humidity;BMP_temperature;BMP_pressure;BME280_temperature;BME280_humidity;BME280_pressure;Samples;Min_cycle;Max_cycle;Signal;HPM_P1;HPM_P2
2023/02/13 00:01:34;;;;;;;1.52;1.42;;;0.60;86.90;;;;;;1943287;74;21089;-58
2023/02/13 00:04:03;;;;;;;3.62;1.67;;;0.60;86.50;;;;;;1943205;74;21409;-58
2023/02/13 00:06:32;;;;;;;10.25;2.00;;;0.60;86.30;;;;;;1943326;74;21159;-58
2023/02/13 00:09:01;;;;;;;2.35;1.77;;;0.60;86.80;;;;;;1943197;74;21059;-58
2023/02/13 00:11:31;;;;;;;5.85;1.62;;;0.60;87.20;;;;;;1943318;74;21074;-58
2023/02/13 00:14:00;;;;;;;3.05;1.67;;;0.60;85.60;;;;;;1943245;74;21054;-57
2023/02/13 00:16:29;;;;;;;3.42;1.85;;;0.60;86.80;;;;;;1943253;73;21546;-58
2023/02/13 00:18:58;;;;;;;4.30;1.80;;;0.60;86.70;;;;;;1943213;74;21010;-57
2023/02/13 00:21:27;;;;;;;3.95;2.20;;;0.70;86.20;;;;;;1943250;74;21007;-58
2023/02/13 00:23:57;;;;;;;3.42;2.22;;;0.60;86.10;;;;;;1943195;74;21175;-58
2023/02/13 00:26:26;;;;;;;6.85;2.08;;;0.60;86.40;;;;;;1943161;74;21030;-58
2023/02/13 00:28:56;;;;;;;1.70;1.45;;;0.60;86.30;;;;;;1943189;74;21085;-58
2023/02/13 00:31:26;;;;;;;1.72;1.40;;;0.60;86.00;;;;;;1943162;74;21007;-58
2023/02/13 00:33:55;;;;;;;3.83;1.20;;;0.50;85.50;;;;;;1943220;74;21078;-58
2023/02/13 00:36:24;;;;;;;2.65;1.25;;;0.40;85.80;;;;;;1943204;74;21031;-58
2023/02/13 00:38:54;;;;;;;2.40;1.02;;;0.50;86.10;;;;;;1943181;74;21050;-57
2023/02/13 00:41:23;;;;;;;1.00;0.90;;;0.40;86.00;;;;;;1943348;74;21007;-58
2023/02/13 00:43:52;;;;;;;3.47;1.85;;;0.40;85.70;;;;;;1943209;74;21011;-58
2023/02/13 00:46:21;;;;;;;1.90;1.20;;;0.40;86.10;;;;;;1943360;74;20999;-58
2023/02/13 00:48:50;;;;;;;5.22;1.87;;;0.30;86.00;;;;;;1943140;74;21078;-57
2023/02/13 00:51:20;;;;;;;2.92;2.65;;;0.30;86.60;;;;;;1943106;74;21011;-58
2023/02/13 00:53:49;;;;;;;1.67;0.90;;;0.30;86.70;;;;;;1943103;74;21081;-58
2023/02/13 00:56:18;;;;;;;3.08;1.45;;;0.30;86.90;;;;;;1943208;74;21031;-58
2023/02/13 00:58:47;;;;;;;1.45;1.35;;;0.30;87.20;;;;;;1943053;74;21019;-58
2023/02/13 01:01:16;;;;;;;1.60;1.50;;;0.20;87.00;;;;;;1943146;74;21540;-57
2023/02/13 01:03:45;;;;;;;5.28;2.00;;;0.30;87.50;;;;;;1943116;74;21007;-57
2023/02/13 01:06:14;;;;;;;3.62;2.60;;;0.30;87.20;;;;;;1943098;74;21063;-57
2023/02/13 01:08:43;;;;;;;5.97;3.52;;;0.30;87.40;;;;;;1943134;74;21094;-57
2023/02/13 01:11:12;;;;;;;11.35;4.95;;;0.30;87.40;;;;;;1943151;74;21031;-57
2023/02/13 01:13:41;;;;;;;4.22;2.15;;;0.30;87.30;;;;;;1943175;74;21038;-57
2023/02/13 01:16:10;;;;;;;3.98;2.52;;;0.30;87.00;;;;;;1943111;74;21436;-57
2023/02/13 01:18:39;;;;;;;7.47;3.25;;;0.30;87.20;;;;;;1943181;74;21105;-56
2023/02/13 01:21:11;;;;;;;4.60;3.42;;;0.40;87.50;;;;;;1943102;74;21507;-57
2023/02/13 01:23:40;;;;;;;5.90;2.12;;;0.30;88.00;;;;;;1942617;73;21654;-57
2023/02/13 01:26:11;;;;;;;3.98;2.20;;;0.40;87.60;;;;;;1943080;74;21023;-57
2023/02/13 01:28:40;;;;;;;4.85;2.67;;;0.40;87.60;;;;;;1943151;74;21128;-57
2023/02/13 01:31:10;;;;;;;4.22;1.87;;;0.40;87.70;;;;;;1942999;74;21108;-57
2023/02/13 01:33:39;;;;;;;6.42;1.70;;;0.40;87.80;;;;;;1942912;74;21035;-57
2023/02/13 01:36:10;;;;;;;8.58;3.25;;;0.40;87.40;;;;;;1943136;74;21104;-57
2023/02/13 01:38:40;;;;;;;3.35;2.55;;;0.40;87.20;;;;;;1943204;74;21003;-57
2023/02/13 01:41:10;;;;;;;2.35;2.15;;;0.40;87.00;;;;;;1943154;74;21124;-57
2023/02/13 01:43:47;;;;;;;8.15;2.95;;;0.40;87.00;;;;;;1943144;74;21068;-57
2023/02/13 01:46:19;;;;;;;3.85;3.20;;;0.30;86.20;;;;;;1942215;74;21038;-57
2023/02/13 01:48:51;;;;;;;10.23;3.47;;;0.40;87.00;;;;;;1943260;74;21028;-57
2023/02/13 01:51:25;;;;;;;4.67;2.45;;;0.30;87.30;;;;;;1943187;74;21088;-57
2023/02/13 01:54:03;;;;;;;3.47;2.37;;;0.30;87.70;;;;;;1943244;74;21015;-58
2023/02/13 01:56:36;;;;;;;2.52;2.02;;;0.40;87.70;;;;;;1943237;74;21031;-57
2023/02/13 01:59:10;;;;;;;2.35;2.05;;;0.40;87.80;;;;;;1943251;74;21493;-58
2023/02/13 02:01:40;;;;;;;3.37;2.42;;;0.30;87.80;;;;;;1943388;74;21449;-59
2023/02/13 02:04:15;;;;;;;6.70;3.80;;;0.30;87.80;;;;;;1943186;74;21164;-58
2023/02/13 02:06:47;;;;;;;4.17;2.80;;;0.30;87.70;;;;;;1942888;74;21034;-58
2023/02/13 02:09:21;;;;;;;7.47;3.85;;;0.30;85.40;;;;;;1941630;74;21062;-58
2023/02/13 02:12:02;;;;;;;6.17;3.77;;;0.30;85.10;;;;;;1943033;74;21449;-58
2023/02/13 02:14:31;;;;;;;1.20;1.15;;;0.30;85.00;;;;;;1943154;74;21069;-58
2023/02/13 02:17:00;;;;;;;1.95;1.37;;;0.30;85.30;;;;;;1943141;74;21042;-58
2023/02/13 02:19:48;;;;;;;3.65;1.40;;;0.30;85.00;;;;;;1943411;74;21023;-59
2023/02/13 02:22:47;;;;;;;1.47;1.37;;;0.20;85.10;;;;;;1943468;74;21031;-58
2023/02/13 02:25:30;;;;;;;2.27;1.60;;;0.20;84.70;;;;;;1943408;73;21062;-58
2023/02/13 02:28:03;;;;;;;5.83;3.35;;;0.20;84.50;;;;;;1941909;73;21101;-58
2023/02/13 02:31:01;;;;;;;3.95;1.67;;;0.20;85.20;;;;;;1943072;74;21089;-58
2023/02/13 02:33:51;;;;;;;2.92;1.45;;;0.20;85.90;;;;;;1942279;74;21035;-58
2023/02/13 02:36:26;;;;;;;1.92;1.37;;;0.10;83.90;;;;;;1943311;74;21038;-59
2023/02/13 02:39:16;;;;;;;1.00;0.90;;;0.10;84.70;;;;;;1943613;74;20999;-58
2023/02/13 02:42:06;;;;;;;3.95;1.85;;;0.10;84.10;;;;;;1941604;74;21015;-58
2023/02/13 02:44:56;;;;;;;3.12;1.35;;;0.20;84.50;;;;;;1942815;74;20983;-58
2023/02/13 02:50:36;;;;;;;1.07;0.70;;;0.10;84.80;;;;;;1943307;74;21513;-58
2023/02/13 02:53:17;;;;;;;11.10;3.92;;;0.10;84.40;;;;;;1943250;74;21093;-58
2023/02/13 02:55:50;;;;;;;4.00;1.80;;;0.10;84.50;;;;;;1943420;74;21047;-58
2023/02/13 03:06:53;;;;;;;4.72;2.87;;;0.10;84.80;;;;;;1943263;74;21027;-58
2023/02/13 03:15:10;;;;;;;3.08;2.22;;;0.00;83.50;;;;;;1943360;74;21096;-58
2023/02/13 03:23:33;;;;;;;5.22;3.60;;;0.00;83.60;;;;;;1926484;74;21047;-58
2023/02/13 03:26:07;;;;;;;3.72;2.47;;;0.10;84.60;;;;;;1903448;74;21112;-59
2023/02/13 03:31:52;;;;;;;10.82;2.55;;;0.20;84.20;;;;;;1943137;74;21032;-58
2023/02/13 03:34:23;;;;;;;3.85;2.25;;;0.20;82.90;;;;;;1943327;74;21030;-58
2023/02/13 03:40:00;;;;;;;11.57;4.03;;;0.20;82.00;;;;;;1943369;74;21143;-58
2023/02/13 03:42:46;;;;;;;2.95;2.00;;;0.20;82.30;;;;;;1943395;74;21015;-58
2023/02/13 03:50:04;;;;;;;14.38;6.87;;;0.20;83.40;;;;;;1943261;74;21034;-58
2023/02/13 03:50:42;;;;;;;17.80;6.97;;;0.20;83.60;;;;;;1938071;74;20980;-58
2023/02/13 03:53:14;;;;;;;3.85;2.80;;;0.20;84.20;;;;;;1943386;74;21321;-58
2023/02/13 04:01:28;;;;;;;4.08;1.90;;;0.30;81.20;;;;;;1943309;74;21051;-58
2023/02/13 04:04:00;;;;;;;2.92;2.17;;;0.30;81.40;;;;;;1943195;74;21023;-58
2023/02/13 04:06:37;;;;;;;4.45;2.25;;;0.30;82.00;;;;;;1943364;74;21078;-58
2023/02/13 04:09:07;;;;;;;6.40;3.85;;;0.30;82.90;;;;;;1943295;74;21039;-58
2023/02/13 04:11:39;;;;;;;8.85;4.17;;;0.30;82.50;;;;;;1943315;74;21092;-58
2023/02/13 04:14:17;;;;;;;16.85;8.33;;;0.30;82.30;;;;;;1943145;74;21015;-59
2023/02/13 04:16:48;;;;;;;9.55;4.05;;;0.20;82.30;;;;;;1937437;74;21047;-58
2023/02/13 04:19:18;;;;;;;7.35;4.62;;;0.20;82.60;;;;;;1942533;74;21550;-58
2023/02/13 04:21:49;;;;;;;1.70;1.57;;;0.20;83.20;;;;;;1943342;74;21007;-59
2023/02/13 04:24:18;;;;;;;3.67;2.40;;;0.20;82.20;;;;;;1943323;74;21022;-58
2023/02/13 04:26:47;;;;;;;3.42;2.65;;;0.20;81.60;;;;;;1943311;74;21061;-58
2023/02/13 04:29:16;;;;;;;3.62;2.17;;;0.20;82.10;;;;;;1936274;74;21446;-58
2023/02/13 04:31:45;;;;;;;8.93;8.08;;;0.20;81.20;;;;;;1935651;74;21442;-58
2023/02/13 04:34:15;;;;;;;3.58;3.27;;;0.10;82.30;;;;;;1935798;74;21015;-58
2023/02/13 04:36:43;;;;;;;4.10;2.42;;;0.10;81.80;;;;;;1935706;74;21011;-58
2023/02/13 04:39:13;;;;;;;3.62;2.12;;;0.10;82.30;;;;;;1935692;74;21124;-58
2023/02/13 04:41:42;;;;;;;5.03;3.65;;;0.10;81.80;;;;;;1935876;74;21419;-58
2023/02/13 04:44:11;;;;;;;5.45;1.72;;;0.10;82.00;;;;;;1935665;74;21035;-58
2023/02/13 04:46:40;;;;;;;4.42;2.30;;;0.10;81.90;;;;;;1935822;74;20995;-58
2023/02/13 04:49:11;;;;;;;7.00;2.72;;;0.10;82.60;;;;;;1935633;74;21077;-58
2023/02/13 04:51:44;;;;;;;1.35;1.25;;;0.00;81.90;;;;;;1935707;74;21005;-58
2023/02/13 04:54:11;;;;;;;3.00;2.25;;;0.10;81.40;;;;;;1934411;74;21078;-58
2023/02/13 04:56:40;;;;;;;5.78;2.52;;;0.00;81.90;;;;;;1935663;74;21000;-58
2023/02/13 04:59:09;;;;;;;2.08;1.98;;;0.00;82.20;;;;;;1935642;74;21019;-58
2023/02/13 05:01:38;;;;;;;4.78;1.37;;;0.00;81.40;;;;;;1935781;74;21018;-58
2023/02/13 05:04:07;;;;;;;4.08;1.80;;;-0.10;81.30;;;;;;1935719;74;21084;-58
2023/02/13 05:06:37;;;;;;;2.25;2.02;;;-0.10;82.20;;;;;;1935617;74;21051;-58
2023/02/13 05:09:06;;;;;;;3.02;1.85;;;-0.10;82.90;;;;;;1935641;74;21073;-58
2023/02/13 05:11:35;;;;;;;2.62;2.22;;;-0.10;83.80;;;;;;1935580;74;21112;-58
2023/02/13 05:14:04;;;;;;;2.52;1.67;;;0.00;83.50;;;;;;1935662;74;21492;-58
2023/02/13 05:16:33;;;;;;;2.00;1.80;;;0.10;83.20;;;;;;1935604;74;21058;-58
2023/02/13 05:19:02;;;;;;;3.42;1.82;;;0.10;83.30;;;;;;1935509;74;21063;-58
2023/02/13 05:24:18;;;;;;;2.37;1.70;;;0.20;82.90;;;;;;1935596;74;21039;-58
2023/02/13 05:26:47;;;;;;;2.67;2.00;;;0.20;82.70;;;;;;1935632;74;21423;-58
2023/02/13 05:29:19;;;;;;;8.70;3.70;;;0.20;83.30;;;;;;1944259;74;21059;-58
2023/02/13 05:31:53;;;;;;;13.38;5.62;;;0.20;83.70;;;;;;1948630;74;21011;-58
2023/02/13 05:34:23;;;;;;;7.55;4.03;;;0.20;83.90;;;;;;1948666;74;21010;-58
2023/02/13 05:36:52;;;;;;;18.55;8.70;;;0.20;84.10;;;;;;1948622;74;21019;-58
2023/02/13 05:39:24;;;;;;;5.55;3.47;;;0.20;83.90;;;;;;1948630;73;21023;-58
2023/02/13 05:41:55;;;;;;;3.58;2.05;;;0.20;84.10;;;;;;1947668;74;21070;-58
2023/02/13 05:44:24;;;;;;;5.62;3.45;;;0.20;83.50;;;;;;1948614;74;21015;-58
2023/02/13 05:46:53;;;;;;;3.22;2.52;;;0.20;83.60;;;;;;1948719;74;21026;-58
2023/02/13 05:49:22;;;;;;;3.75;2.02;;;0.10;84.10;;;;;;1948614;74;21457;-58
2023/02/13 05:51:51;;;;;;;4.45;1.65;;;0.10;84.30;;;;;;1948605;74;21048;-58
2023/02/13 05:54:20;;;;;;;4.58;3.20;;;0.10;84.40;;;;;;1948686;73;21035;-58
2023/02/13 05:56:49;;;;;;;11.43;7.03;;;0.10;84.90;;;;;;1948772;74;21092;-58
2023/02/13 05:59:18;;;;;;;2.50;1.50;;;0.10;84.60;;;;;;1948744;73;21101;-58
2023/02/13 06:01:47;;;;;;;9.13;2.27;;;0.20;84.70;;;;;;1948734;74;21011;-58
2023/02/13 06:04:16;;;;;;;9.65;3.60;;;0.10;84.50;;;;;;1948711;74;21027;-58
2023/02/13 06:06:46;;;;;;;3.27;1.92;;;0.20;84.70;;;;;;1948734;74;21044;-58
2023/02/13 06:09:15;;;;;;;4.70;3.00;;;0.20;84.30;;;;;;1948681;73;21081;-58
2023/02/13 06:11:44;;;;;;;8.90;5.17;;;0.30;84.50;;;;;;1948696;73;21140;-58
2023/02/13 06:14:13;;;;;;;4.28;2.60;;;0.30;84.50;;;;;;1948759;73;21050;-58
2023/02/13 06:16:42;;;;;;;1.85;1.32;;;0.40;84.50;;;;;;1948763;74;21003;-58
2023/02/13 06:19:11;;;;;;;2.87;1.80;;;0.40;84.40;;;;;;1948728;73;21003;-58
2023/02/13 06:21:40;;;;;;;4.20;2.42;;;0.50;84.30;;;;;;1948713;74;21007;-58
2023/02/13 06:24:08;;;;;;;1.40;1.30;;;0.60;83.60;;;;;;1948738;73;21018;-58
2023/02/13 06:26:37;;;;;;;4.17;3.08;;;0.60;83.10;;;;;;1948745;74;21007;-58
2023/02/13 06:29:08;;;;;;;3.37;2.22;;;0.60;83.00;;;;;;1944458;73;21051;-58
2023/02/13 06:31:37;;;;;;;3.87;2.05;;;0.60;83.40;;;;;;1935623;74;20991;-59
2023/02/13 06:34:06;;;;;;;3.52;1.77;;;0.70;83.90;;;;;;1935741;74;21019;-58
2023/02/13 06:36:37;;;;;;;2.00;1.60;;;0.70;83.00;;;;;;1935798;74;21011;-58
2023/02/13 06:39:06;;;;;;;3.70;2.12;;;0.70;83.10;;;;;;1935677;74;21062;-58
2023/02/13 06:41:35;;;;;;;4.17;2.17;;;0.60;83.10;;;;;;1935785;74;21450;-58
2023/02/13 06:44:04;;;;;;;1.65;1.52;;;0.60;82.50;;;;;;1935645;74;21592;-58
2023/02/13 06:46:33;;;;;;;3.15;2.45;;;0.50;82.40;;;;;;1935605;74;21074;-58
2023/02/13 06:49:02;;;;;;;2.22;2.02;;;0.60;82.20;;;;;;1935609;74;21019;-58
2023/02/13 06:51:31;;;;;;;5.78;2.70;;;0.60;81.00;;;;;;1935600;74;21092;-58
2023/02/13 06:54:01;;;;;;;5.05;2.52;;;0.60;81.70;;;;;;1935690;74;21007;-58
2023/02/13 06:56:31;;;;;;;4.12;2.60;;;0.60;79.70;;;;;;1935654;74;21057;-58
2023/02/13 06:59:00;;;;;;;1.80;1.22;;;0.70;80.20;;;;;;1935546;74;20997;-58
2023/02/13 07:01:29;;;;;;;5.20;3.22;;;0.60;80.20;;;;;;1935717;74;21031;-57
2023/02/13 07:03:58;;;;;;;3.00;2.33;;;0.60;79.40;;;;;;1935649;74;21031;-58
2023/02/13 07:06:27;;;;;;;4.75;2.25;;;0.70;79.20;;;;;;1935617;74;21087;-58
2023/02/13 07:08:56;;;;;;;2.30;2.10;;;0.70;78.90;;;;;;1935671;74;21019;-58
2023/02/13 07:11:26;;;;;;;7.78;4.80;;;0.80;77.60;;;;;;1935541;74;21511;-59
2023/02/13 07:13:55;;;;;;;3.12;1.85;;;0.80;78.70;;;;;;1935582;74;21122;-58
2023/02/13 07:16:24;;;;;;;1.85;1.05;;;0.80;77.20;;;;;;1935628;74;21063;-58
2023/02/13 07:18:53;;;;;;;2.60;2.02;;;0.80;77.80;;;;;;1935591;74;21059;-58
2023/02/13 07:21:22;;;;;;;3.77;2.08;;;0.90;77.10;;;;;;1935631;74;21077;-58
2023/02/13 07:23:52;;;;;;;5.35;2.70;;;0.90;76.80;;;;;;1935584;74;21040;-58
2023/02/13 07:26:21;;;;;;;2.60;2.30;;;0.90;76.50;;;;;;1935654;74;21003;-58
2023/02/13 07:28:50;;;;;;;3.40;2.42;;;0.90;77.00;;;;;;1935583;74;21091;-58
2023/02/13 07:31:19;;;;;;;7.17;2.85;;;0.90;77.50;;;;;;1942708;73;21051;-58
2023/02/13 07:33:49;;;;;;;8.95;4.42;;;0.90;77.60;;;;;;1943069;73;21023;-58
2023/02/13 07:36:18;;;;;;;3.60;2.10;;;0.80;75.10;;;;;;1943131;74;21039;-58
2023/02/13 07:38:48;;;;;;;2.08;1.62;;;0.80;75.30;;;;;;1943248;74;21031;-58
2023/02/13 07:41:17;;;;;;;1.52;1.30;;;0.70;75.50;;;;;;1943091;74;21034;-58
2023/02/13 07:43:46;;;;;;;4.83;1.70;;;0.70;76.50;;;;;;1943062;74;21125;-57
2023/02/13 07:46:15;;;;;;;2.37;1.30;;;0.70;76.90;;;;;;1943095;74;21072;-57
2023/02/13 07:48:44;;;;;;;2.60;1.57;;;0.70;77.50;;;;;;1943041;74;21066;-57
2023/02/13 07:51:13;;;;;;;2.50;1.82;;;0.70;78.50;;;;;;1942960;74;21019;-57
2023/02/13 07:53:42;;;;;;;8.30;2.25;;;0.80;77.70;;;;;;1943076;74;21054;-57
2023/02/13 07:56:11;;;;;;;2.00;1.50;;;0.90;78.10;;;;;;1943152;74;20999;-57
2023/02/13 07:58:40;;;;;;;10.70;4.35;;;1.00;77.60;;;;;;1943017;74;21084;-58
2023/02/13 08:01:11;;;;;;;4.72;3.12;;;1.00;76.10;;;;;;1943238;74;21022;-57
2023/02/13 08:03:40;;;;;;;1.35;1.25;;;1.00;74.90;;;;;;1943164;74;20983;-57
2023/02/13 08:06:09;;;;;;;2.37;1.45;;;1.00;75.80;;;;;;1943062;74;21019;-57
2023/02/13 08:08:38;;;;;;;2.75;1.77;;;0.90;75.30;;;;;;1943060;74;21398;-57
2023/02/13 08:13:56;;;;;;;18.85;9.85;;;0.90;74.20;;;;;;1943027;74;21108;-57
2023/02/13 08:16:25;;;;;;;4.05;2.37;;;0.90;73.80;;;;;;1942945;74;21022;-57
2023/02/13 08:18:54;;;;;;;1.40;1.27;;;0.80;74.10;;;;;;1942870;74;21595;-57
2023/02/13 08:21:23;;;;;;;1.50;1.40;;;0.70;73.60;;;;;;1942889;74;21112;-57
2023/02/13 08:23:52;;;;;;;4.37;1.60;;;0.80;73.90;;;;;;1943039;74;21035;-57
2023/02/13 08:26:21;;;;;;;1.70;1.55;;;0.80;76.10;;;;;;1943038;74;21023;-57
2023/02/13 08:28:50;;;;;;;3.75;1.62;;;1.00;75.80;;;;;;1943040;73;20999;-57
2023/02/13 08:31:20;;;;;;;1.32;1.00;;;1.00;74.10;;;;;;1937940;74;21054;-57
2023/02/13 08:33:49;;;;;;;1.70;1.60;;;1.10;72.00;;;;;;1935470;74;21065;-57
2023/02/13 08:36:18;;;;;;;1.10;0.82;;;1.10;72.40;;;;;;1935620;74;21020;-57
2023/02/13 08:38:47;;;;;;;1.72;1.05;;;1.00;73.00;;;;;;1935374;74;21012;-57
2023/02/13 08:41:23;;;;;;;0.88;0.88;;;1.10;74.10;;;;;;1935665;74;21465;-57
2023/02/13 08:43:53;;;;;;;0.95;0.95;;;1.20;74.70;;;;;;1932774;74;21007;-57
2023/02/13 08:46:23;;;;;;;2.95;1.60;;;1.20;73.80;;;;;;1903659;73;21048;-57
2023/02/13 08:48:52;;;;;;;2.47;2.10;;;1.20;72.50;;;;;;1901739;75;21029;-57
2023/02/13 08:51:22;;;;;;;1.32;1.22;;;1.20;73.00;;;;;;1901991;75;21167;-55
2023/02/13 08:53:51;;;;;;;5.08;2.85;;;1.20;72.70;;;;;;1900913;75;21732;-55
2023/02/13 08:56:20;;;;;;;6.58;3.90;;;1.30;73.80;;;;;;1900706;75;21146;-55
2023/02/13 08:58:50;;;;;;;5.08;3.42;;;1.30;71.80;;;;;;1901404;75;21181;-55
2023/02/13 09:01:19;;;;;;;1.65;1.22;;;1.30;73.20;;;;;;1901614;75;21095;-54
2023/02/13 09:03:48;;;;;;;3.83;1.00;;;1.30;74.50;;;;;;1901630;75;21084;-55
2023/02/13 09:06:17;;;;;;;1.60;1.25;;;1.40;74.70;;;;;;1901572;75;21211;-55
2023/02/13 09:08:46;;;;;;;1.12;0.90;;;1.50;76.60;;;;;;1901967;75;21008;-56
2023/02/13 09:11:15;;;;;;;2.08;1.10;;;1.50;73.80;;;;;;1902164;75;21068;-55
2023/02/13 09:13:44;;;;;;;1.15;1.02;;;1.50;72.80;;;;;;1902176;75;20993;-56
2023/02/13 09:16:13;;;;;;;1.27;0.80;;;1.50;73.10;;;;;;1902114;75;21024;-55
2023/02/13 09:18:42;;;;;;;0.85;0.85;;;1.50;73.60;;;;;;1902286;75;21114;-55
2023/02/13 09:21:12;;;;;;;0.98;0.88;;;1.60;73.30;;;;;;1902222;75;21029;-55
2023/02/13 09:23:42;;;;;;;3.08;1.77;;;1.60;72.10;;;;;;1900877;75;21032;-58
2023/02/13 09:26:13;;;;;;;1.85;1.35;;;1.50;70.50;;;;;;1901489;75;21055;-57
2023/02/13 09:28:42;;;;;;;5.22;2.67;;;1.50;69.10;;;;;;1901733;75;21009;-56
2023/02/13 09:31:15;;;;;;;4.87;1.70;;;1.50;71.40;;;;;;1901470;75;21130;-59
2023/02/13 09:33:45;;;;;;;2.20;1.95;;;1.50;72.10;;;;;;1901698;75;21032;-58
2023/02/13 09:36:20;;;;;;;1.25;0.93;;;1.60;70.50;;;;;;1901668;75;21009;-57
2023/02/13 09:38:54;;;;;;;1.12;1.02;;;1.60;70.20;;;;;;1901673;75;21471;-57
2023/02/13 09:41:38;;;;;;;3.45;1.52;;;1.60;71.70;;;;;;1901561;75;21142;-59
2023/02/13 09:44:34;;;;;;;5.90;1.47;;;1.60;73.70;;;;;;1901699;75;21071;-57
2023/02/13 09:47:18;;;;;;;1.82;1.20;;;1.60;70.50;;;;;;1901447;75;21110;-57
2023/02/13 09:49:49;;;;;;;1.35;1.25;;;1.50;69.10;;;;;;1901486;75;21061;-60
2023/02/13 09:52:18;;;;;;;2.60;1.22;;;1.40;69.90;;;;;;1900023;75;21655;-57
2023/02/13 09:54:47;;;;;;;0.98;0.90;;;1.40;70.50;;;;;;1901473;75;21080;-57
2023/02/13 09:57:34;;;;;;;2.67;1.77;;;1.40;70.70;;;;;;1901577;75;21061;-57
2023/02/13 10:00:38;;;;;;;3.90;1.62;;;1.50;71.50;;;;;;1900046;75;21122;-58
2023/02/13 10:03:22;;;;;;;1.10;1.02;;;1.60;72.90;;;;;;1901639;75;21092;-57
2023/02/13 10:06:20;;;;;;;5.72;2.05;;;1.50;69.20;;;;;;1900690;75;21600;-57
2023/02/13 10:09:04;;;;;;;1.60;1.42;;;1.50;71.20;;;;;;1901489;75;21664;-58
2023/02/13 10:12:09;;;;;;;1.92;1.20;;;1.50;72.50;;;;;;1901509;75;21645;-58
2023/02/13 10:14:56;;;;;;;3.42;1.50;;;1.50;71.20;;;;;;1901526;75;21119;-60
2023/02/13 10:17:28;;;;;;;1.40;1.12;;;1.50;72.00;;;;;;1900610;75;21095;-58
2023/02/13 10:20:03;;;;;;;1.72;1.25;;;1.50;73.70;;;;;;1899616;75;21024;-57
2023/02/13 10:22:37;;;;;;;2.50;1.42;;;1.60;71.70;;;;;;1901697;75;21080;-61
2023/02/13 10:25:12;;;;;;;1.57;1.32;;;1.60;71.70;;;;;;1902602;75;21039;-59
2023/02/13 10:27:53;;;;;;;5.62;2.25;;;1.60;72.70;;;;;;1904507;74;21250;-58
2023/02/13 10:30:31;;;;;;;7.95;3.02;;;1.50;72.30;;;;;;1904114;74;21023;-57
2023/02/13 10:33:18;;;;;;;4.80;1.50;;;1.40;73.30;;;;;;1920418;74;21524;-58
2023/02/13 10:36:08;;;;;;;3.65;2.08;;;1.40;73.30;;;;;;1923943;74;21050;-60
2023/02/13 10:38:39;;;;;;;3.20;2.60;;;1.50;72.30;;;;;;1923422;74;21091;-58
2023/02/13 10:41:36;;;;;;;2.25;1.65;;;1.60;71.70;;;;;;1923361;74;21077;-58
2023/02/13 10:44:14;;;;;;;2.25;1.80;;;1.60;71.00;;;;;;1923955;74;21171;-59
2023/02/13 10:47:00;;;;;;;5.42;2.50;;;1.60;70.80;;;;;;1923082;74;21003;-59
2023/02/13 10:49:48;;;;;;;2.22;1.45;;;1.60;72.40;;;;;;1885569;74;21088;-58
2023/02/13 10:52:38;;;;;;;1.50;1.40;;;1.60;73.00;;;;;;1923854;74;21171;-58
2023/02/13 10:55:22;;;;;;;2.15;1.67;;;1.60;72.60;;;;;;1922781;74;21050;-58
